createdAt,value
2017-11-24T00:01:06.785Z,19.27
2017-11-24T00:02:19.076Z,19.24
2017-11-24T00:03:31.839Z,19.24
2017-11-24T00:04:44.569Z,19.35
2017-11-24T00:05:57.333Z,19.31
2017-11-24T00:07:10.182Z,19.32
2017-11-24T00:08:22.946Z,19.35
2017-11-24T00:09:35.237Z,19.32
2017-11-24T00:10:47.981Z,19.35
2017-11-24T00:12:00.765Z,19.28
2017-11-24T00:13:13.564Z,19.15
2017-11-24T00:14:25.898Z,19.17
2017-11-24T00:15:38.665Z,19.15
2017-11-24T00:16:50.543Z,19.13
2017-11-24T00:18:03.309Z,19.3
2017-11-24T00:19:16.112Z,19.16
2017-11-24T00:20:28.416Z,19.28
2017-11-24T00:21:40.717Z,19.27
2017-11-24T00:22:53.483Z,19.17
2017-11-24T00:24:06.256Z,19.24
2017-11-24T00:25:18.122Z,19.27
2017-11-24T00:26:30.880Z,19.28
2017-11-24T00:27:43.628Z,19.35
2017-11-24T00:28:56.398Z,19.34
2017-11-24T00:30:09.153Z,19.31
2017-11-24T00:31:21.927Z,19.39
2017-11-24T00:32:34.680Z,19.39
2017-11-24T00:33:47.443Z,19.42
2017-11-24T00:35:00.192Z,19.43
2017-11-24T00:36:12.953Z,19.55
2017-11-24T00:37:25.718Z,19.52
2017-11-24T00:38:38.020Z,19.49
2017-11-24T00:39:50.811Z,19.45
2017-11-24T00:41:03.581Z,19.32
2017-11-24T00:42:16.335Z,19.39
2017-11-24T00:43:28.666Z,19.32
2017-11-24T00:44:41.413Z,19.39
2017-11-24T00:45:53.715Z,19.39
2017-11-24T00:47:06.475Z,19.32
2017-11-24T00:48:19.259Z,19.39
2017-11-24T00:49:32.033Z,19.43
2017-11-24T00:50:44.782Z,19.52
2017-11-24T00:51:57.516Z,19.42
2017-11-24T00:53:10.256Z,19.52
2017-11-24T00:54:23.005Z,19.52
2017-11-24T00:55:35.837Z,19.5
2017-11-24T00:56:48.602Z,19.53
2017-11-24T00:58:00.889Z,19.53
2017-11-24T00:59:13.645Z,19.5
2017-11-24T01:00:26.394Z,19.49
2017-11-24T01:01:39.249Z,19.55
2017-11-24T01:02:52.001Z,19.67
2017-11-24T01:04:04.743Z,19.65
2017-11-24T01:05:17.491Z,19.58
2017-11-24T01:06:29.793Z,19.53
2017-11-24T01:07:42.525Z,19.58
2017-11-24T01:08:54.398Z,19.47
2017-11-24T01:10:07.179Z,19.62
2017-11-24T01:11:19.468Z,19.55
2017-11-24T01:12:31.776Z,19.55
2017-11-24T01:13:44.549Z,19.61
2017-11-24T01:14:57.292Z,19.64
2017-11-24T01:16:10.248Z,19.67
2017-11-24T01:17:22.548Z,19.62
2017-11-24T01:18:35.315Z,19.67
2017-11-24T01:19:48.081Z,19.68
2017-11-24T01:21:00.823Z,19.75
2017-11-24T01:22:13.571Z,19.7
2017-11-24T01:23:26.311Z,19.68
2017-11-24T01:24:39.092Z,19.65
2017-11-24T01:25:51.830Z,19.67
2017-11-24T01:27:04.154Z,19.75
2017-11-24T01:28:16.910Z,19.67
2017-11-24T01:29:29.649Z,19.68
2017-11-24T01:30:42.398Z,19.68
2017-11-24T01:31:54.697Z,19.67
2017-11-24T01:33:07.489Z,19.64
2017-11-24T01:34:20.277Z,19.67
2017-11-24T01:35:33.033Z,19.78
2017-11-24T01:36:45.773Z,19.72
2017-11-24T01:37:58.497Z,19.7
2017-11-24T01:39:11.261Z,19.78
2017-11-24T01:40:24.012Z,19.62
2017-11-24T01:41:36.767Z,19.72
2017-11-24T01:42:49.494Z,19.68
2017-11-24T01:44:01.798Z,19.82
2017-11-24T01:45:14.102Z,19.7
2017-11-24T01:46:26.850Z,19.78
2017-11-24T01:47:39.153Z,19.7
2017-11-24T01:48:51.874Z,19.75
2017-11-24T01:50:04.611Z,19.61
2017-11-24T01:51:16.901Z,19.65
2017-11-24T01:52:29.211Z,19.67
2017-11-24T01:53:41.562Z,19.75
2017-11-24T01:54:54.310Z,19.68
2017-11-24T01:56:07.039Z,19.67
2017-11-24T01:57:19.803Z,19.65
2017-11-24T01:58:32.214Z,19.78
2017-11-24T01:59:44.944Z,19.85
2017-11-24T02:00:57.696Z,19.87
2017-11-24T02:02:10.480Z,19.87
2017-11-24T02:03:23.242Z,19.82
2017-11-24T02:04:35.563Z,19.86
2017-11-24T02:05:47.887Z,19.94
2017-11-24T02:07:00.636Z,19.98
2017-11-24T02:08:13.398Z,19.92
2017-11-24T02:09:26.156Z,19.95
2017-11-24T02:10:38.914Z,19.94
2017-11-24T02:11:51.233Z,19.94
2017-11-24T02:13:04.012Z,19.86
2017-11-24T02:14:16.767Z,19.8
2017-11-24T02:15:29.526Z,19.97
2017-11-24T02:16:42.285Z,20
2017-11-24T02:17:55.051Z,19.94
2017-11-24T02:19:07.825Z,19.89
2017-11-24T02:20:20.597Z,19.94
2017-11-24T02:21:33.354Z,19.98
2017-11-24T02:22:45.212Z,19.95
2017-11-24T02:23:57.494Z,19.95
2017-11-24T02:25:09.317Z,19.82
2017-11-24T02:26:22.066Z,19.86
2017-11-24T02:27:34.831Z,19.89
2017-11-24T02:28:47.139Z,19.85
2017-11-24T02:29:59.889Z,19.94
2017-11-24T02:31:12.647Z,19.86
2017-11-24T02:32:24.944Z,19.78
2017-11-24T02:33:37.708Z,19.85
2017-11-24T02:34:50.491Z,19.68
2017-11-24T02:36:03.258Z,19.83
2017-11-24T02:37:16.024Z,19.8
2017-11-24T02:38:28.760Z,19.8
2017-11-24T02:39:41.520Z,19.78
2017-11-24T02:40:54.304Z,19.71
2017-11-24T02:42:06.626Z,19.78
2017-11-24T02:43:19.406Z,19.83
2017-11-24T02:44:32.226Z,19.7
2017-11-24T02:45:45.010Z,19.83
2017-11-24T02:46:57.793Z,19.87
2017-11-24T02:48:10.118Z,19.83
2017-11-24T02:49:22.887Z,19.83
2017-11-24T02:50:35.685Z,19.85
2017-11-24T02:51:48.471Z,19.7
2017-11-24T02:53:01.270Z,19.85
2017-11-24T02:54:14.020Z,19.72
2017-11-24T02:55:25.864Z,19.78
2017-11-24T02:56:38.603Z,19.72
2017-11-24T02:57:51.359Z,19.61
2017-11-24T02:59:03.652Z,19.72
2017-11-24T03:00:16.397Z,19.68
2017-11-24T03:01:29.124Z,19.65
2017-11-24T03:02:41.885Z,19.62
2017-11-24T03:03:54.622Z,19.68
2017-11-24T03:05:07.376Z,19.7
2017-11-24T03:06:20.126Z,19.62
2017-11-24T03:07:32.409Z,19.68
2017-11-24T03:08:44.694Z,19.67
2017-11-24T03:09:57.429Z,19.62
2017-11-24T03:11:10.177Z,19.67
2017-11-24T03:12:22.942Z,19.72
2017-11-24T03:13:35.680Z,19.67
2017-11-24T03:14:48.005Z,19.71
2017-11-24T03:16:00.743Z,19.67
2017-11-24T03:17:13.477Z,19.71
2017-11-24T03:18:26.211Z,19.8
2017-11-24T03:19:38.950Z,19.8
2017-11-24T03:20:51.690Z,19.67
2017-11-24T03:22:04.437Z,19.72
2017-11-24T03:23:17.199Z,19.72
2017-11-24T03:24:29.925Z,19.65
2017-11-24T03:25:42.672Z,19.68
2017-11-24T03:26:55.425Z,19.65
2017-11-24T03:28:07.728Z,19.75
2017-11-24T03:29:20.026Z,19.79
2017-11-24T03:30:32.789Z,19.75
2017-11-24T03:31:45.528Z,19.76
2017-11-24T03:32:58.268Z,19.7
2017-11-24T03:34:11.039Z,19.68
2017-11-24T03:35:23.808Z,19.78
2017-11-24T03:36:36.127Z,19.68
2017-11-24T03:37:48.929Z,19.6
2017-11-24T03:39:01.663Z,19.53
2017-11-24T03:40:13.974Z,19.53
2017-11-24T03:41:26.724Z,19.58
2017-11-24T03:42:38.583Z,19.57
2017-11-24T03:43:51.328Z,19.61
2017-11-24T03:45:04.104Z,19.6
2017-11-24T03:46:16.896Z,19.67
2017-11-24T03:47:29.671Z,19.7
2017-11-24T03:48:42.014Z,19.64
2017-11-24T03:49:54.802Z,19.65
2017-11-24T03:51:07.587Z,19.57
2017-11-24T03:52:20.377Z,19.58
2017-11-24T03:53:32.716Z,19.5
2017-11-24T03:54:45.042Z,19.55
2017-11-24T03:55:57.843Z,19.5
2017-11-24T03:57:10.636Z,19.38
2017-11-24T03:58:22.972Z,19.35
2017-11-24T03:59:35.311Z,19.39
2017-11-24T04:00:48.080Z,19.39
2017-11-24T04:02:00.872Z,19.42
2017-11-24T04:03:13.675Z,19.46
2017-11-24T04:04:26.506Z,19.47
2017-11-24T04:05:38.842Z,19.39
2017-11-24T04:06:51.602Z,19.49
2017-11-24T04:08:04.357Z,19.58
2017-11-24T04:09:17.140Z,19.43
2017-11-24T04:10:29.896Z,19.43
2017-11-24T04:11:42.698Z,19.32
2017-11-24T04:12:55.011Z,19.24
2017-11-24T04:14:07.748Z,19.27
2017-11-24T04:15:20.511Z,19.23
2017-11-24T04:16:32.817Z,19.24
2017-11-24T04:17:45.165Z,19.13
2017-11-24T04:18:57.978Z,19.12
2017-11-24T04:20:10.746Z,19.16
2017-11-24T04:21:23.525Z,19.16
2017-11-24T04:22:36.284Z,19.1
2017-11-24T04:23:49.155Z,19.12
2017-11-24T04:25:01.926Z,19.28
2017-11-24T04:26:14.234Z,19.28
2017-11-24T04:27:27.010Z,19.2
2017-11-24T04:28:39.794Z,19.2
2017-11-24T04:29:52.554Z,19.3
2017-11-24T04:31:05.329Z,19.24
2017-11-24T04:32:18.115Z,19.28
2017-11-24T04:33:30.912Z,19.24
2017-11-24T04:34:43.219Z,19.16
2017-11-24T04:35:55.974Z,19.09
2017-11-24T04:37:08.761Z,19.15
2017-11-24T04:38:21.521Z,19.15
2017-11-24T04:39:34.291Z,19.16
2017-11-24T04:40:47.064Z,19.13
2017-11-24T04:41:59.834Z,19.12
2017-11-24T04:43:12.151Z,19.15
2017-11-24T04:44:24.912Z,19.13
2017-11-24T04:45:37.657Z,19.17
2017-11-24T04:46:50.416Z,19.17
2017-11-24T04:48:03.172Z,19.2
2017-11-24T04:49:15.416Z,19.25
2017-11-24T04:50:28.070Z,19.31
2017-11-24T04:51:40.743Z,19.27
2017-11-24T04:52:53.501Z,19.28
2017-11-24T04:54:06.223Z,19.32
2017-11-24T04:55:18.892Z,19.4
2017-11-24T04:56:31.132Z,19.38
2017-11-24T04:57:42.977Z,19.31
2017-11-24T04:58:55.658Z,19.34
2017-11-24T05:00:08.371Z,19.35
2017-11-24T05:01:21.136Z,19.31
2017-11-24T05:02:33.800Z,19.35
2017-11-24T05:03:46.508Z,19.24
2017-11-24T05:04:58.724Z,19.27
2017-11-24T05:06:11.016Z,19.13
2017-11-24T05:07:23.728Z,19.16
2017-11-24T05:08:36.426Z,19.16
2017-11-24T05:09:48.682Z,19.13
2017-11-24T05:11:01.355Z,19.2
2017-11-24T05:12:14.052Z,19.13
2017-11-24T05:13:26.811Z,19.15
2017-11-24T05:14:39.565Z,19.24
2017-11-24T05:15:51.827Z,19.13
2017-11-24T05:17:04.647Z,19.17
2017-11-24T05:18:17.410Z,19.15
2017-11-24T05:19:30.202Z,19.12
2017-11-24T05:20:42.935Z,19.17
2017-11-24T05:21:55.737Z,19.12
2017-11-24T05:23:08.173Z,19.16
2017-11-24T05:24:20.996Z,19.1
2017-11-24T05:25:33.796Z,19.16
2017-11-24T05:26:46.593Z,19.1
2017-11-24T05:27:59.365Z,19.12
2017-11-24T05:29:12.157Z,19.16
2017-11-24T05:30:24.950Z,19.1
2017-11-24T05:31:37.757Z,19.17
2017-11-24T05:32:50.603Z,19.15
2017-11-24T05:34:03.483Z,19.1
2017-11-24T05:35:15.789Z,19.15
2017-11-24T05:36:28.098Z,19.09
2017-11-24T05:37:40.401Z,19.12
2017-11-24T05:38:53.157Z,18.96
2017-11-24T05:40:05.983Z,18.94
2017-11-24T05:41:18.321Z,19.12
2017-11-24T05:42:31.096Z,19.12
2017-11-24T05:43:42.961Z,19.07
2017-11-24T05:44:55.799Z,19.05
2017-11-24T05:46:08.566Z,19.02
2017-11-24T05:47:20.868Z,19.05
2017-11-24T05:48:33.627Z,19.1
2017-11-24T05:49:46.393Z,19.15
2017-11-24T05:50:58.702Z,19.13
2017-11-24T05:52:10.983Z,19.16
2017-11-24T05:53:23.731Z,19.16
2017-11-24T05:54:36.496Z,19.16
2017-11-24T05:55:49.262Z,19.23
2017-11-24T05:57:02.020Z,19.13
2017-11-24T05:58:14.332Z,19.23
2017-11-24T05:59:27.049Z,19.27
2017-11-24T06:00:39.755Z,19.28
2017-11-24T06:01:52.038Z,19.32
2017-11-24T06:03:04.701Z,19.35
2017-11-24T06:04:17.416Z,19.2
2017-11-24T06:05:30.119Z,19.25
2017-11-24T06:06:42.844Z,19.35
2017-11-24T06:07:55.576Z,19.32
2017-11-24T06:09:08.309Z,19.35
2017-11-24T06:10:20.636Z,19.34
2017-11-24T06:11:33.358Z,19.27
2017-11-24T06:12:46.173Z,19.25
2017-11-24T06:13:58.856Z,19.17
2017-11-24T06:15:11.588Z,19.25
2017-11-24T06:16:24.278Z,19.3
2017-11-24T06:17:36.945Z,19.31
2017-11-24T06:18:49.668Z,19.32
2017-11-24T06:20:02.407Z,19.3
2017-11-24T06:21:15.097Z,19.39
2017-11-24T06:22:27.811Z,19.39
2017-11-24T06:23:40.136Z,19.34
2017-11-24T06:24:52.859Z,19.39
2017-11-24T06:26:05.586Z,19.32
2017-11-24T06:27:17.836Z,19.32
2017-11-24T06:28:30.536Z,19.38
2017-11-24T06:29:43.195Z,19.35
2017-11-24T06:30:55.900Z,19.38
2017-11-24T06:32:08.592Z,19.34
2017-11-24T06:33:21.294Z,19.32
2017-11-24T06:34:34.134Z,19.43
2017-11-24T06:35:46.860Z,19.3
2017-11-24T06:36:59.533Z,19.35
2017-11-24T06:38:11.749Z,19.43
2017-11-24T06:39:24.453Z,19.35
2017-11-24T06:40:37.066Z,19.4
2017-11-24T06:41:49.777Z,19.35
2017-11-24T06:43:02.482Z,19.09
2017-11-24T06:44:15.134Z,19.1
2017-11-24T06:45:27.802Z,18.86
2017-11-24T06:46:40.505Z,18.87
2017-11-24T06:47:52.723Z,18.76
2017-11-24T06:49:05.354Z,18.78
2017-11-24T06:50:18.056Z,18.91
2017-11-24T06:51:29.418Z,18.89
2017-11-24T06:52:41.176Z,18.93
2017-11-24T06:53:53.800Z,18.97
2017-11-24T06:55:06.000Z,19.01
2017-11-24T06:56:18.613Z,18.99
2017-11-24T06:57:31.278Z,18.96
2017-11-24T06:58:43.517Z,18.97
2017-11-24T06:59:56.183Z,19.09
2017-11-24T07:01:08.813Z,18.91
2017-11-24T07:02:21.013Z,19.01
2017-11-24T07:03:33.706Z,18.96
2017-11-24T07:04:45.520Z,19.09
2017-11-24T07:05:58.161Z,19.06
2017-11-24T07:07:10.895Z,19.07
2017-11-24T07:08:23.523Z,19.07
2017-11-24T07:09:36.162Z,19.1
2017-11-24T07:10:48.424Z,18.99
2017-11-24T07:12:01.103Z,18.99
2017-11-24T07:13:13.776Z,18.9
2017-11-24T07:14:26.457Z,18.84
2017-11-24T07:15:38.670Z,18.79
2017-11-24T07:16:51.359Z,18.78
2017-11-24T07:18:04.007Z,18.82
2017-11-24T07:19:16.658Z,18.82
2017-11-24T07:20:29.280Z,18.71
2017-11-24T07:21:41.519Z,18.69
2017-11-24T07:22:54.160Z,18.59
2017-11-24T07:24:06.881Z,18.64
2017-11-24T07:25:19.065Z,18.65
2017-11-24T07:26:31.641Z,18.78
2017-11-24T07:27:44.312Z,18.79
2017-11-24T07:28:56.954Z,18.84
2017-11-24T07:30:09.645Z,18.89
2017-11-24T07:31:22.270Z,18.84
2017-11-24T07:32:34.987Z,18.86
2017-11-24T07:33:47.159Z,18.94
2017-11-24T07:34:59.839Z,18.89
2017-11-24T07:36:12.069Z,18.87
2017-11-24T07:37:24.288Z,18.82
2017-11-24T07:38:36.940Z,18.84
2017-11-24T07:39:49.231Z,18.9
2017-11-24T07:41:01.406Z,18.83
2017-11-24T07:42:13.634Z,18.74
2017-11-24T07:43:26.258Z,18.66
2017-11-24T07:44:38.942Z,18.59
2017-11-24T07:45:51.797Z,18.6
2017-11-24T07:47:04.412Z,18.57
2017-11-24T07:48:17.077Z,18.57
2017-11-24T07:49:29.257Z,18.56
2017-11-24T07:50:41.877Z,18.62
2017-11-24T07:51:53.189Z,18.65
2017-11-24T07:53:05.320Z,18.68
2017-11-24T07:54:17.965Z,18.78
2017-11-24T07:55:30.604Z,18.75
2017-11-24T07:56:42.937Z,18.89
2017-11-24T07:57:55.594Z,18.94
2017-11-24T07:59:08.292Z,18.82
2017-11-24T08:00:20.906Z,18.75
2017-11-24T08:01:32.709Z,18.93
2017-11-24T08:02:45.443Z,18.84
2017-11-24T08:03:57.717Z,18.83
2017-11-24T08:05:10.352Z,18.86
2017-11-24T08:06:22.987Z,18.97
2017-11-24T08:07:35.178Z,18.99
2017-11-24T08:08:47.808Z,18.96
2017-11-24T08:10:00.064Z,18.96
2017-11-24T08:11:12.781Z,18.9
2017-11-24T08:12:25.491Z,18.83
2017-11-24T08:13:38.254Z,18.89
2017-11-24T08:14:50.971Z,18.86
2017-11-24T08:16:03.668Z,18.82
2017-11-24T08:17:15.944Z,18.86
2017-11-24T08:18:28.707Z,18.93
2017-11-24T08:19:41.417Z,18.84
2017-11-24T08:20:54.135Z,18.91
2017-11-24T08:22:06.853Z,18.84
2017-11-24T08:23:19.558Z,18.82
2017-11-24T08:24:31.859Z,18.71
2017-11-24T08:25:44.631Z,18.68
2017-11-24T08:26:56.889Z,18.68
2017-11-24T08:28:09.172Z,18.56
2017-11-24T08:29:21.898Z,18.53
2017-11-24T08:30:34.612Z,18.49
2017-11-24T08:31:46.906Z,18.41
2017-11-24T08:32:59.648Z,18.42
2017-11-24T08:34:12.421Z,18.32
2017-11-24T08:35:24.655Z,18.42
2017-11-24T08:36:37.390Z,18.32
2017-11-24T08:37:50.114Z,18.34
2017-11-24T08:39:02.882Z,18.29
2017-11-24T08:40:15.649Z,18.2
2017-11-24T08:41:28.378Z,18.21
2017-11-24T08:42:41.114Z,18.31
2017-11-24T08:43:53.426Z,18.32
2017-11-24T08:45:06.168Z,18.39
2017-11-24T08:46:18.891Z,18.38
2017-11-24T08:47:31.623Z,18.49
2017-11-24T08:48:44.338Z,18.56
2017-11-24T08:49:57.036Z,18.6
2017-11-24T08:51:09.338Z,18.64
2017-11-24T08:52:22.096Z,18.68
2017-11-24T08:53:34.889Z,18.66
2017-11-24T08:54:47.634Z,18.78
2017-11-24T08:56:00.494Z,18.82
2017-11-24T08:57:13.259Z,18.84
2017-11-24T08:58:25.541Z,18.84
2017-11-24T08:59:37.796Z,18.89
2017-11-24T09:00:50.531Z,18.97
2017-11-24T09:02:02.813Z,18.94
2017-11-24T09:03:15.584Z,19.1
2017-11-24T09:04:28.349Z,19.01
2017-11-24T09:05:41.125Z,18.94
2017-11-24T09:06:53.908Z,19.02
2017-11-24T09:08:06.183Z,18.97
2017-11-24T09:09:18.511Z,19.1
2017-11-24T09:10:30.804Z,19.07
2017-11-24T09:11:43.118Z,19.07
2017-11-24T09:12:55.886Z,19.12
2017-11-24T09:14:08.177Z,19.15
2017-11-24T09:15:20.463Z,19.15
2017-11-24T09:16:33.201Z,19.24
2017-11-24T09:17:46.004Z,19.28
2017-11-24T09:18:58.768Z,19.35
2017-11-24T09:20:11.495Z,19.27
2017-11-24T09:21:24.261Z,19.35
2017-11-24T09:22:37.027Z,19.38
2017-11-24T09:23:49.780Z,19.31
2017-11-24T09:25:02.057Z,19.3
2017-11-24T09:26:14.386Z,19.32
2017-11-24T09:27:27.170Z,19.35
2017-11-24T09:28:39.966Z,19.4
2017-11-24T09:29:52.754Z,19.35
2017-11-24T09:31:05.064Z,19.52
2017-11-24T09:32:17.786Z,19.52
2017-11-24T09:33:30.066Z,19.52
2017-11-24T09:34:42.833Z,19.61
2017-11-24T09:35:55.592Z,19.65
2017-11-24T09:37:07.945Z,19.65
2017-11-24T09:38:20.261Z,19.62
2017-11-24T09:39:33.044Z,19.72
2017-11-24T09:40:45.384Z,19.72
2017-11-24T09:41:58.174Z,19.71
2017-11-24T09:43:10.978Z,19.67
2017-11-24T09:44:23.307Z,19.85
2017-11-24T09:45:36.075Z,19.82
2017-11-24T09:46:48.399Z,19.78
2017-11-24T09:48:01.186Z,19.86
2017-11-24T09:49:13.960Z,19.76
2017-11-24T09:50:26.294Z,19.8
2017-11-24T09:51:39.084Z,19.85
2017-11-24T09:52:51.858Z,19.94
2017-11-24T09:54:04.635Z,19.92
2017-11-24T09:55:16.930Z,19.92
2017-11-24T09:56:29.395Z,20.02
2017-11-24T09:57:42.162Z,20.08
2017-11-24T09:58:54.477Z,20.05
2017-11-24T10:00:06.821Z,20.02
2017-11-24T10:01:19.596Z,19.98
2017-11-24T10:02:32.341Z,19.78
2017-11-24T10:03:44.633Z,19.86
2017-11-24T10:04:57.386Z,19.85
2017-11-24T10:06:10.137Z,19.82
2017-11-24T10:07:23.009Z,19.82
2017-11-24T10:08:35.702Z,19.62
2017-11-24T10:09:48.466Z,19.6
2017-11-24T10:11:00.755Z,19.47
2017-11-24T10:12:13.478Z,19.5
2017-11-24T10:13:26.200Z,19.43
2017-11-24T10:14:38.954Z,19.43
2017-11-24T10:15:51.741Z,19.39
2017-11-24T10:17:04.546Z,19.47
2017-11-24T10:18:17.273Z,19.52
2017-11-24T10:19:29.608Z,19.58
2017-11-24T10:20:42.373Z,19.6
2017-11-24T10:21:55.181Z,19.78
2017-11-24T10:23:07.451Z,19.75
2017-11-24T10:24:19.781Z,19.83
2017-11-24T10:25:32.565Z,19.78
2017-11-24T10:26:45.324Z,19.79
2017-11-24T10:27:58.057Z,19.8
2017-11-24T10:29:10.360Z,19.83
2017-11-24T10:30:23.130Z,19.89
2017-11-24T10:31:35.886Z,19.98
2017-11-24T10:32:48.192Z,20
2017-11-24T10:34:00.947Z,20.04
2017-11-24T10:35:13.707Z,20.1
2017-11-24T10:36:26.048Z,20.2
2017-11-24T10:37:38.759Z,20.31
2017-11-24T10:38:51.530Z,20.35
2017-11-24T10:40:04.282Z,20.35
2017-11-24T10:41:17.070Z,20.25
2017-11-24T10:42:29.407Z,20.12
2017-11-24T10:43:41.713Z,20.1
2017-11-24T10:44:54.019Z,20.13
2017-11-24T10:46:06.785Z,20.19
2017-11-24T10:47:19.501Z,20.33
2017-11-24T10:48:32.229Z,20.37
2017-11-24T10:49:44.987Z,20.5
2017-11-24T10:50:57.742Z,20.53
2017-11-24T10:52:10.083Z,20.64
2017-11-24T10:53:22.803Z,20.66
2017-11-24T10:54:35.096Z,20.64
2017-11-24T10:55:47.877Z,20.71
2017-11-24T10:57:00.668Z,20.64
2017-11-24T10:58:13.414Z,20.51
2017-11-24T10:59:25.198Z,20.38
2017-11-24T11:00:37.935Z,20.31
2017-11-24T11:01:50.244Z,20.44
2017-11-24T11:03:02.970Z,20.37
2017-11-24T11:04:15.703Z,20.58
2017-11-24T11:05:28.416Z,20.75
2017-11-24T11:06:40.699Z,20.69
2017-11-24T11:07:52.984Z,20.9
2017-11-24T11:09:05.755Z,21.01
2017-11-24T11:10:18.092Z,21.09
2017-11-24T11:11:30.416Z,21.26
2017-11-24T11:12:43.134Z,21.34
2017-11-24T11:13:55.429Z,21.42
2017-11-24T11:15:08.170Z,21.48
2017-11-24T11:16:20.918Z,21.59
2017-11-24T11:17:33.675Z,21.58
2017-11-24T11:18:46.411Z,21.63
2017-11-24T11:19:58.260Z,21.63
2017-11-24T11:21:11.003Z,21.71
2017-11-24T11:22:23.732Z,21.71
2017-11-24T11:23:36.479Z,21.73
2017-11-24T11:24:48.734Z,21.79
2017-11-24T11:26:00.521Z,21.89
2017-11-24T11:27:12.749Z,21.89
2017-11-24T11:28:25.442Z,21.98
2017-11-24T11:29:37.774Z,22.02
2017-11-24T11:30:50.503Z,22.04
2017-11-24T11:32:02.778Z,22.06
2017-11-24T11:33:15.491Z,22.02
2017-11-24T11:34:27.317Z,22.15
2017-11-24T11:35:39.991Z,22.14
2017-11-24T11:36:52.721Z,22.19
2017-11-24T11:38:05.516Z,22.44
2017-11-24T11:39:17.757Z,22.46
2017-11-24T11:40:30.523Z,22.63
2017-11-24T11:41:42.812Z,22.49
2017-11-24T11:42:55.508Z,22.49
2017-11-24T11:44:07.531Z,22.46
2017-11-24T11:45:20.320Z,22.42
2017-11-24T11:46:33.051Z,22.19
2017-11-24T11:47:45.826Z,21.91
2017-11-24T11:48:58.578Z,21.83
2017-11-24T11:50:11.053Z,21.9
2017-11-24T11:51:23.829Z,21.94
2017-11-24T11:52:36.590Z,22.02
2017-11-24T11:53:49.359Z,22.23
2017-11-24T11:55:02.142Z,22.29
2017-11-24T11:56:14.462Z,22.44
2017-11-24T11:57:26.307Z,22.59
2017-11-24T11:58:38.952Z,22.7
2017-11-24T11:59:50.781Z,22.89
2017-11-24T12:01:03.443Z,22.89
2017-11-24T12:02:16.214Z,22.85
2017-11-24T12:03:28.948Z,22.89
2017-11-24T12:04:41.175Z,22.91
2017-11-24T12:05:53.933Z,22.99
2017-11-24T12:07:06.158Z,23.11
2017-11-24T12:08:18.912Z,22.78
2017-11-24T12:09:31.568Z,22.86
2017-11-24T12:10:43.856Z,22.84
2017-11-24T12:11:56.569Z,22.99
2017-11-24T12:13:09.297Z,23.31
2017-11-24T12:14:21.985Z,23.5
2017-11-24T12:15:34.265Z,23.77
2017-11-24T12:16:47.016Z,23.86
2017-11-24T12:17:59.719Z,24.09
2017-11-24T12:19:12.453Z,24.3
2017-11-24T12:20:24.744Z,24.7
2017-11-24T12:21:37.431Z,24.98
2017-11-24T12:22:50.133Z,25.08
2017-11-24T12:24:02.406Z,25.29
2017-11-24T12:25:15.135Z,25.39
2017-11-24T12:26:27.880Z,25.38
2017-11-24T12:27:39.682Z,25.48
2017-11-24T12:28:51.458Z,25.74
2017-11-24T12:30:04.166Z,25.98
2017-11-24T12:31:16.447Z,26.24
2017-11-24T12:32:28.721Z,26.42
2017-11-24T12:33:40.497Z,26.66
2017-11-24T12:34:52.295Z,26.76
2017-11-24T12:36:05.018Z,26.35
2017-11-24T12:37:17.227Z,26.36
2017-11-24T12:38:29.026Z,26.28
2017-11-24T12:39:41.271Z,26.11
2017-11-24T12:40:53.951Z,26.12
2017-11-24T12:42:06.241Z,26.32
2017-11-24T12:43:18.944Z,26.39
2017-11-24T12:44:30.785Z,26.38
2017-11-24T12:45:43.521Z,26.46
2017-11-24T12:46:56.283Z,26.56
2017-11-24T12:48:08.596Z,26.65
2017-11-24T12:49:21.289Z,26.39
2017-11-24T12:50:33.120Z,26.29
2017-11-24T12:51:45.798Z,26.44
2017-11-24T12:52:58.521Z,26.21
2017-11-24T12:54:10.793Z,26
2017-11-24T12:55:23.056Z,26.01
2017-11-24T12:56:35.314Z,26.23
2017-11-24T12:57:48.063Z,26.29
2017-11-24T12:59:00.313Z,26.41
2017-11-24T13:00:12.555Z,26.57
2017-11-24T13:01:25.220Z,26.5
2017-11-24T13:02:37.437Z,26.49
2017-11-24T13:03:50.140Z,26.35
2017-11-24T13:05:02.402Z,26.47
2017-11-24T13:06:15.124Z,26.56
2017-11-24T13:07:27.890Z,26.69
2017-11-24T13:08:40.208Z,26.91
2017-11-24T13:09:53.011Z,27.08
2017-11-24T13:11:05.795Z,26.98
2017-11-24T13:12:18.144Z,26.75
2017-11-24T13:13:30.911Z,26.73
2017-11-24T13:14:42.783Z,26.88
2017-11-24T13:15:55.625Z,26.56
2017-11-24T13:17:07.974Z,26.29
2017-11-24T13:18:20.318Z,26
2017-11-24T13:19:32.636Z,25.9
2017-11-24T13:20:45.399Z,25.91
2017-11-24T13:21:57.748Z,25.96
2017-11-24T13:23:10.546Z,26.17
2017-11-24T13:24:23.317Z,26.38
2017-11-24T13:25:35.652Z,26.59
2017-11-24T13:26:48.028Z,26.71
2017-11-24T13:28:00.805Z,27.09
2017-11-24T13:29:13.590Z,27.23
2017-11-24T13:30:25.477Z,27.15
2017-11-24T13:31:37.797Z,27.06
2017-11-24T13:32:50.601Z,26.96
2017-11-24T13:34:03.372Z,26.91
2017-11-24T13:35:15.247Z,27.06
2017-11-24T13:36:27.558Z,27.69
2017-11-24T13:37:40.373Z,27.83
2017-11-24T13:38:53.178Z,27.86
2017-11-24T13:40:05.965Z,27.78
2017-11-24T13:41:18.293Z,27.96
2017-11-24T13:42:30.621Z,28.06
2017-11-24T13:43:43.395Z,28.08
2017-11-24T13:44:56.176Z,27.98
2017-11-24T13:46:08.971Z,28.23
2017-11-24T13:47:21.312Z,28.33
2017-11-24T13:48:34.130Z,28.48
2017-11-24T13:49:46.923Z,28.65
2017-11-24T13:50:59.454Z,28.76
2017-11-24T13:52:12.237Z,28.8
2017-11-24T13:53:25.015Z,28.95
2017-11-24T13:54:37.834Z,29.07
2017-11-24T13:55:50.635Z,29.2
2017-11-24T13:57:03.428Z,29.36
2017-11-24T13:58:16.203Z,29.44
2017-11-24T13:59:28.523Z,29.55
2017-11-24T14:00:41.252Z,29.64
2017-11-24T14:01:54.022Z,29.92
2017-11-24T14:03:06.775Z,30
2017-11-24T14:04:19.556Z,30.07
2017-11-24T14:05:31.843Z,30.29
2017-11-24T14:06:44.131Z,30.34
2017-11-24T14:07:56.900Z,30.32
2017-11-24T14:09:09.195Z,30.15
2017-11-24T14:10:21.945Z,30.06
2017-11-24T14:11:34.256Z,30.1
2017-11-24T14:12:46.562Z,29.94
2017-11-24T14:13:59.322Z,29.85
2017-11-24T14:15:12.119Z,29.7
2017-11-24T14:16:24.885Z,29.69
2017-11-24T14:17:37.644Z,29.76
2017-11-24T14:18:56.790Z,29.45
2017-11-24T14:20:10.562Z,29.44
2017-11-24T14:21:23.357Z,29.32
2017-11-24T14:22:36.120Z,29.23
2017-11-24T14:23:48.877Z,29.2
2017-11-24T14:25:01.626Z,29.3
2017-11-24T14:26:14.364Z,29.29
2017-11-24T14:27:26.666Z,29.39
2017-11-24T14:28:39.411Z,29.25
2017-11-24T14:29:55.298Z,29.25
2017-11-24T14:31:08.136Z,29.41
2017-11-24T14:32:20.901Z,29.44
2017-11-24T14:33:33.212Z,29.05
2017-11-24T14:34:45.513Z,28.58
2017-11-24T14:35:58.272Z,28.42
2017-11-24T14:37:10.129Z,28.38
2017-11-24T14:38:21.970Z,28.51
2017-11-24T14:39:34.745Z,28.6
2017-11-24T14:40:48.878Z,28.82
2017-11-24T14:42:01.615Z,29.05
2017-11-24T14:43:14.387Z,29.11
2017-11-24T14:44:27.147Z,29.08
2017-11-24T14:45:39.886Z,29.23
2017-11-24T14:46:52.655Z,29.32
2017-11-24T14:48:05.406Z,29.23
2017-11-24T14:49:17.703Z,29.27
2017-11-24T14:50:30.111Z,29.36
2017-11-24T14:51:42.847Z,29.48
2017-11-24T14:52:55.623Z,29.69
2017-11-24T14:54:08.416Z,29.86
2017-11-24T14:55:21.202Z,29.95
2017-11-24T14:56:34.000Z,30.34
2017-11-24T14:57:46.751Z,30.37
2017-11-24T14:58:59.057Z,30.4
2017-11-24T15:00:11.815Z,30.54
2017-11-24T15:01:24.168Z,30.34
2017-11-24T15:02:37.371Z,30.34
2017-11-24T15:03:49.661Z,30.32
2017-11-24T15:05:01.966Z,30.29
2017-11-24T15:06:14.727Z,30.22
2017-11-24T15:07:27.468Z,30.28
2017-11-24T15:08:39.764Z,30.22
2017-11-24T15:09:52.051Z,30.13
2017-11-24T15:11:04.349Z,30.18
2017-11-24T15:12:16.691Z,29.89
2017-11-24T15:13:30.493Z,29.78
2017-11-24T15:14:42.817Z,29.67
2017-11-24T15:15:55.580Z,29.63
2017-11-24T15:17:07.879Z,29.52
2017-11-24T15:18:20.639Z,29.57
2017-11-24T15:19:33.384Z,29.52
2017-11-24T15:20:46.118Z,29.51
2017-11-24T15:21:58.404Z,29.49
2017-11-24T15:23:11.510Z,29.21
2017-11-24T15:24:24.359Z,28.97
2017-11-24T15:25:36.725Z,28.82
2017-11-24T15:26:51.248Z,28.58
2017-11-24T15:28:04.083Z,28.43
2017-11-24T15:29:17.452Z,28.35
2017-11-24T15:30:29.790Z,28.25
2017-11-24T15:31:42.562Z,28.35
2017-11-24T15:32:55.349Z,28.36
2017-11-24T15:34:08.021Z,28.54
2017-11-24T15:35:20.952Z,28.6
2017-11-24T15:36:33.632Z,28.69
2017-11-24T15:37:46.360Z,28.67
2017-11-24T15:38:59.120Z,28.51